createdAt,value
2022-08-22T00:01:06.059Z,68.82
2022-08-22T00:02:55.326Z,66.65
2022-08-22T00:02:56.792Z,60.82
2022-08-22T00:02:59.073Z,67.88
2022-08-22T00:03:09.242Z,68.27
2022-08-22T00:03:45.250Z,68.19
2022-08-22T00:06:20.541Z,68.56
2022-08-22T00:09:03.283Z,69.03
2022-08-22T00:11:47.574Z,69.42
2022-08-22T00:14:23.664Z,70.01
2022-08-22T00:16:59.358Z,68.98
2022-08-22T00:19:43.095Z,68.60
2022-08-22T00:22:19.426Z,68.52
2022-08-22T00:24:52.105Z,68.55
2022-08-22T00:27:25.051Z,68.46
2022-08-22T00:29:59.083Z,68.97
2022-08-22T00:32:31.533Z,68.74
2022-08-22T00:35:03.823Z,68.36
2022-08-22T00:37:38.666Z,68.57
2022-08-22T00:40:24.771Z,68.98
2022-08-22T00:43:27.696Z,69.23
2022-08-22T00:46:13.146Z,70.24
2022-08-22T00:49:12.038Z,70.09
2022-08-22T00:52:01.269Z,70.57
2022-08-22T00:54:47.453Z,70.06
2022-08-22T00:57:36.744Z,70.25
2022-08-22T01:00:18.320Z,70.72
2022-08-22T01:03:22.731Z,70.59
2022-08-22T01:06:08.811Z,70.69
2022-08-22T01:08:53.999Z,70.82
2022-08-22T01:12:05.136Z,71.12
2022-08-22T01:14:44.760Z,70.13
2022-08-22T01:17:35.096Z,71.07
2022-08-22T01:20:34.151Z,71.59
2022-08-22T01:23:40.932Z,71.69
2022-08-22T01:26:53.726Z,71.49
2022-08-22T01:29:51.396Z,71.29
2022-08-22T01:32:57.039Z,71.04
2022-08-22T01:35:42.918Z,70.42
2022-08-22T01:38:34.116Z,71.18
2022-08-22T01:41:44.046Z,71.76
2022-08-22T01:44:28.727Z,72.00
2022-08-22T01:47:03.715Z,72.01
2022-08-22T01:49:41.056Z,72.63
2022-08-22T01:52:18.228Z,71.80
2022-08-22T01:54:52.684Z,71.48
2022-08-22T01:57:21.309Z,71.73
2022-08-22T01:59:53.358Z,72.04
2022-08-22T02:02:38.152Z,71.89
2022-08-22T02:05:14.521Z,71.51
2022-08-22T02:07:50.254Z,71.86
2022-08-22T02:10:23.995Z,71.11
2022-08-22T02:13:04.163Z,72.18
2022-08-22T02:15:46.401Z,72.13
2022-08-22T02:18:26.030Z,72.09
2022-08-22T02:21:06.861Z,72.16
2022-08-22T02:23:47.118Z,73.19
2022-08-22T02:26:19.022Z,72.71
2022-08-22T02:28:58.159Z,72.50
2022-08-22T02:31:38.239Z,72.00
2022-08-22T02:34:21.647Z,71.74
2022-08-22T02:36:54.950Z,72.25
2022-08-22T02:39:37.247Z,71.90
2022-08-22T02:42:18.355Z,72.72
2022-08-22T02:44:57.952Z,71.87
2022-08-22T02:47:33.554Z,71.96
2022-08-22T02:50:13.188Z,72.04
2022-08-22T02:52:55.322Z,72.41
2022-08-22T02:55:36.701Z,73.68
2022-08-22T02:58:10.114Z,73.50
2022-08-22T03:00:49.562Z,72.65
2022-08-22T03:03:23.390Z,72.87
2022-08-22T03:06:01.824Z,72.72
2022-08-22T03:08:34.054Z,72.52
2022-08-22T03:11:17.328Z,72.35
2022-08-22T03:13:57.881Z,72.98
2022-08-22T03:16:33.975Z,73.27
2022-08-22T03:19:08.034Z,73.50
2022-08-22T03:21:56.923Z,73.92
2022-08-22T03:24:31.488Z,74.00
2022-08-22T03:27:08.554Z,73.81
2022-08-22T03:29:40.693Z,73.82
2022-08-22T03:32:14.894Z,74.35
2022-08-22T03:34:58.306Z,73.94
2022-08-22T03:37:37.545Z,74.09
2022-08-22T03:40:22.232Z,73.76
2022-08-22T03:43:30.297Z,72.98
2022-08-22T03:46:28.210Z,73.54
2022-08-22T03:49:34.124Z,73.61
2022-08-22T03:52:21.240Z,73.49
2022-08-22T03:55:08.497Z,72.60
2022-08-22T03:58:27.886Z,73.02
2022-08-22T04:01:43.775Z,72.83
2022-08-22T04:04:59.211Z,72.79
2022-08-22T04:07:51.494Z,73.40
2022-08-22T04:10:59.390Z,74.14
2022-08-22T04:13:51.189Z,72.88
2022-08-22T04:17:02.326Z,73.36
2022-08-22T04:19:47.954Z,73.49
2022-08-22T04:22:31.249Z,73.68
2022-08-22T04:25:07.816Z,74.42
2022-08-22T04:27:44.746Z,74.15
2022-08-22T04:30:23.395Z,74.71
2022-08-22T04:32:58.094Z,74.32
2022-08-22T04:35:31.673Z,74.13
2022-08-22T04:38:04.646Z,73.84
2022-08-22T04:40:39.869Z,74.05
2022-08-22T04:43:13.477Z,74.65
2022-08-22T04:45:49.157Z,74.14
2022-08-22T04:48:25.256Z,75.62
2022-08-22T04:50:59.431Z,75.10
2022-08-22T04:53:48.488Z,75.47
2022-08-22T04:56:25.185Z,75.62
2022-08-22T04:58:59.623Z,75.89
2022-08-22T05:01:43.337Z,76.21
2022-08-22T05:04:16.849Z,75.62
2022-08-22T05:06:49.450Z,75.06
2022-08-22T05:09:23.020Z,75.17
2022-08-22T05:11:57.596Z,75.49
2022-08-22T05:14:31.576Z,75.25
2022-08-22T05:17:04.422Z,76.01
2022-08-22T05:19:35.760Z,76.87
2022-08-22T05:22:07.028Z,76.75
2022-08-22T05:24:40.489Z,76.54
2022-08-22T05:27:14.850Z,76.12
2022-08-22T05:29:47.426Z,76.22
2022-08-22T05:32:22.199Z,76.32
2022-08-22T05:34:55.079Z,76.50
2022-08-22T05:37:30.994Z,76.30
2022-08-22T05:40:02.447Z,76.53
2022-08-22T05:42:34.437Z,76.27
2022-08-22T05:45:04.256Z,76.38
2022-08-22T05:47:37.727Z,76.53
2022-08-22T05:50:09.572Z,76.29
2022-08-22T05:53:00.803Z,77.01
2022-08-22T05:55:33.399Z,76.53
2022-08-22T05:58:23.642Z,77.05
2022-08-22T06:01:01.305Z,77.24
2022-08-22T06:03:38.128Z,76.40
2022-08-22T06:06:15.621Z,76.41
2022-08-22T06:08:49.835Z,76.40
2022-08-22T06:11:33.704Z,76.49
2022-08-22T06:14:13.754Z,75.91
2022-08-22T06:16:49.208Z,76.18
2022-08-22T06:19:20.867Z,75.83
2022-08-22T06:21:52.008Z,76.06
2022-08-22T06:24:25.289Z,75.47
2022-08-22T06:26:56.591Z,75.28
2022-08-22T06:29:36.699Z,74.24
2022-08-22T06:32:13.438Z,73.93
2022-08-22T06:34:46.778Z,73.96
2022-08-22T06:37:21.273Z,74.52
2022-08-22T06:39:53.398Z,73.40
2022-08-22T06:42:25.917Z,72.67
2022-08-22T06:44:58.592Z,72.54
2022-08-22T06:47:31.681Z,71.82
2022-08-22T06:50:04.559Z,71.57
2022-08-22T06:52:38.908Z,71.68
2022-08-22T06:55:09.131Z,71.42
2022-08-22T06:57:44.791Z,70.81
2022-08-22T07:00:17.056Z,69.88
2022-08-22T07:02:48.208Z,69.41
2022-08-22T07:05:22.000Z,69.63
2022-08-22T07:07:52.326Z,67.96
2022-08-22T07:10:23.680Z,65.80
2022-08-22T07:12:57.790Z,61.90
2022-08-22T07:15:34.480Z,60.63
2022-08-22T07:18:06.006Z,59.91
2022-08-22T07:20:42.001Z,59.38
2022-08-22T07:23:12.881Z,59.34
2022-08-22T07:25:53.021Z,55.41
2022-08-22T07:28:36.972Z,52.84
2022-08-22T07:31:27.843Z,49.28
2022-08-22T07:34:14.962Z,46.11
2022-08-22T07:36:51.057Z,46.48
2022-08-22T07:39:26.914Z,47.25
2022-08-22T07:42:03.727Z,48.25
2022-08-22T07:44:37.497Z,49.77
2022-08-22T07:47:11.132Z,50.70
2022-08-22T07:49:49.896Z,52.25
2022-08-22T07:52:21.789Z,49.77
2022-08-22T07:54:57.954Z,45.12
2022-08-22T07:57:32.874Z,43.04
2022-08-22T08:00:04.030Z,40.65
2022-08-22T08:02:32.303Z,39.43
2022-08-22T08:05:01.805Z,38.72
2022-08-22T08:07:32.369Z,37.34
2022-08-22T08:10:07.972Z,36.92
2022-08-22T08:12:42.454Z,35.99
2022-08-22T08:15:18.665Z,35.46
2022-08-22T08:17:49.394Z,36.95
2022-08-22T08:20:20.897Z,37.78
2022-08-22T08:22:54.093Z,37.19
2022-08-22T08:25:26.992Z,34.36
2022-08-22T08:28:13.182Z,34.77
2022-08-22T08:30:47.546Z,34.66
2022-08-22T08:33:25.123Z,32.89
2022-08-22T08:36:02.551Z,31.76
2022-08-22T08:38:45.196Z,31.97
2022-08-22T08:41:57.809Z,32.42
2022-08-22T08:44:49.636Z,33.28
2022-08-22T08:47:43.361Z,32.32
2022-08-22T08:50:31.291Z,31.00
2022-08-22T08:53:32.555Z,31.03
2022-08-22T08:56:08.298Z,31.98
2022-08-22T08:58:44.290Z,30.87
2022-08-22T09:01:43.848Z,30.05
2022-08-22T09:05:02.948Z,30.52
2022-08-22T09:07:54.814Z,32.39
2022-08-22T09:10:36.231Z,31.31
2022-08-22T09:13:29.924Z,30.36
2022-08-22T09:16:20.416Z,30.69
2022-08-22T09:19:30.023Z,29.36
2022-08-22T09:22:14.209Z,30.06
2022-08-22T09:25:38.336Z,29.65
2022-08-22T09:28:18.119Z,30.04
2022-08-22T09:30:59.225Z,30.19
2022-08-22T09:33:36.445Z,30.08
2022-08-22T09:36:15.538Z,30.71
2022-08-22T09:38:56.168Z,29.78
2022-08-22T09:41:37.460Z,30.03
2022-08-22T09:44:19.141Z,31.67
2022-08-22T09:46:57.740Z,33.53
2022-08-22T09:49:40.860Z,36.13
2022-08-22T09:52:33.906Z,37.56
2022-08-22T09:55:11.726Z,39.21
2022-08-22T09:57:52.184Z,39.76
2022-08-22T10:00:26.213Z,40.19
2022-08-22T10:03:04.091Z,38.48
2022-08-22T10:05:43.897Z,37.92
2022-08-22T10:08:26.108Z,38.27
2022-08-22T10:11:12.915Z,39.99
2022-08-22T10:14:00.691Z,40.34
2022-08-22T10:16:58.145Z,39.97
2022-08-22T10:19:33.199Z,39.81
2022-08-22T10:22:19.910Z,39.65
2022-08-22T10:25:07.693Z,39.54
2022-08-22T10:27:50.013Z,40.07
2022-08-22T10:30:21.857Z,40.39
2022-08-22T10:33:01.718Z,40.04
2022-08-22T10:35:34.269Z,40.72
2022-08-22T10:38:12.598Z,41.68
2022-08-22T10:40:47.723Z,41.12
2022-08-22T10:43:39.192Z,41.30
2022-08-22T10:46:14.723Z,41.31
2022-08-22T10:48:53.219Z,40.97
2022-08-22T10:51:35.609Z,40.94
2022-08-22T10:54:20.110Z,41.36
2022-08-22T10:56:55.648Z,42.09
2022-08-22T10:59:42.189Z,42.41
2022-08-22T11:02:35.021Z,42.06
2022-08-22T11:05:36.810Z,42.43
2022-08-22T11:08:23.206Z,42.12
2022-08-22T11:11:18.167Z,41.47
2022-08-22T11:14:01.648Z,41.86
2022-08-22T11:16:46.360Z,40.56
2022-08-22T11:19:26.856Z,40.44
2022-08-22T11:22:10.354Z,39.78
2022-08-22T11:25:15.241Z,39.10
2022-08-22T11:28:34.341Z,39.34
2022-08-22T11:31:10.481Z,40.01
2022-08-22T11:33:47.420Z,39.62
2022-08-22T11:36:37.338Z,39.99
2022-08-22T11:39:18.172Z,39.91
2022-08-22T11:41:56.567Z,39.86
2022-08-22T11:44:31.311Z,39.95
2022-08-22T11:47:02.921Z,39.97
2022-08-22T11:49:40.503Z,39.67
2022-08-22T11:52:22.721Z,39.86
2022-08-22T11:55:32.615Z,39.40
2022-08-22T11:58:15.958Z,39.28
2022-08-22T12:00:52.015Z,40.15
2022-08-22T12:03:39.102Z,40.74
2022-08-22T12:06:17.107Z,40.48
2022-08-22T12:09:11.701Z,40.56
2022-08-22T12:11:49.734Z,40.43
2022-08-22T12:14:27.096Z,40.54
2022-08-22T12:17:08.869Z,40.65
2022-08-22T12:20:12.878Z,40.65
2022-08-22T12:22:50.755Z,41.17
2022-08-22T12:25:32.912Z,41.22
2022-08-22T12:28:15.781Z,41.20
2022-08-22T12:30:54.672Z,41.53
2022-08-22T12:33:42.080Z,42.14
2022-08-22T12:36:37.553Z,41.87
2022-08-22T12:39:35.508Z,42.28
2022-08-22T12:42:49.120Z,42.21
2022-08-22T12:48:27.952Z,41.45
2022-08-22T12:50:59.687Z,41.19
2022-08-22T12:53:53.311Z,39.96
2022-08-22T12:56:31.831Z,40.84
2022-08-22T12:59:23.449Z,40.74
2022-08-22T13:01:54.759Z,40.94
2022-08-22T13:04:33.819Z,40.42
2022-08-22T13:07:17.667Z,40.54
2022-08-22T13:09:52.231Z,41.23
2022-08-22T13:12:26.495Z,41.18
2022-08-22T13:15:00.084Z,41.26
2022-08-22T13:17:28.596Z,40.80
2022-08-22T13:20:03.296Z,40.72
2022-08-22T13:22:35.157Z,40.64
2022-08-22T13:25:08.577Z,40.62
2022-08-22T13:27:50.999Z,40.83
2022-08-22T13:30:22.322Z,40.12
2022-08-22T13:32:53.164Z,40.11
2022-08-22T13:35:27.960Z,39.50
2022-08-22T13:38:05.484Z,38.70
2022-08-22T13:40:35.628Z,38.94
2022-08-22T13:43:09.077Z,38.97
2022-08-22T13:45:39.534Z,39.09
2022-08-22T13:48:11.432Z,38.64
2022-08-22T13:50:55.870Z,38.86
2022-08-22T13:53:31.572Z,39.07
2022-08-22T13:56:15.508Z,39.09
2022-08-22T13:58:47.005Z,39.33
2022-08-22T14:01:35.927Z,39.21
2022-08-22T14:04:28.575Z,38.79
2022-08-22T14:07:24.434Z,39.92
2022-08-22T14:09:57.800Z,39.13
2022-08-22T14:12:33.299Z,39.23
2022-08-22T14:15:24.696Z,39.56
2022-08-22T14:18:12.421Z,40.00
2022-08-22T14:20:42.249Z,40.22
2022-08-22T14:23:17.975Z,40.19
2022-08-22T14:25:46.459Z,40.02
2022-08-22T14:28:27.415Z,40.32
2022-08-22T14:31:01.918Z,39.93
2022-08-22T14:33:36.648Z,39.70
2022-08-22T14:36:17.215Z,39.85
2022-08-22T14:38:53.299Z,39.78
2022-08-22T14:41:52.598Z,39.65
2022-08-22T14:44:23.635Z,40.19
2022-08-22T14:46:56.345Z,40.27
2022-08-22T14:49:34.386Z,40.54
2022-08-22T14:52:10.157Z,40.38
2022-08-22T14:54:51.076Z,40.52
2022-08-22T14:57:20.430Z,41.02
2022-08-22T14:59:52.593Z,41.04
2022-08-22T15:02:39.632Z,41.04
2022-08-22T15:05:19.811Z,41.74
2022-08-22T15:07:59.366Z,41.89
2022-08-22T15:10:33.339Z,42.18
2022-08-22T15:13:07.995Z,42.51
2022-08-22T15:15:49.542Z,42.10
2022-08-22T15:18:35.263Z,42.04
2022-08-22T15:21:06.899Z,42.04
2022-08-22T15:23:45.326Z,41.87
2022-08-22T15:26:25.939Z,42.30
2022-08-22T15:29:06.977Z,42.63
2022-08-22T15:31:35.699Z,42.40
2022-08-22T15:34:12.013Z,43.22
2022-08-22T15:37:08.315Z,43.01
2022-08-22T15:40:00.623Z,43.09
2022-08-22T15:42:36.018Z,43.60
2022-08-22T15:45:06.314Z,43.71
2022-08-22T15:47:39.844Z,44.17
2022-08-22T15:50:14.650Z,44.22
2022-08-22T15:53:07.631Z,43.93
2022-08-22T15:55:37.061Z,44.04
2022-08-22T15:58:13.299Z,44.06
2022-08-22T16:00:46.238Z,44.65
2022-08-22T16:03:26.756Z,44.84
2022-08-22T16:05:59.951Z,45.26
2022-08-22T16:08:32.810Z,46.25
2022-08-22T16:11:32.946Z,46.18
2022-08-22T16:14:21.338Z,45.52
2022-08-22T16:17:03.095Z,45.86
2022-08-22T16:19:32.811Z,46.47
2022-08-22T16:22:14.695Z,47.31
2022-08-22T16:25:10.458Z,46.97
2022-08-22T16:27:54.030Z,46.76
2022-08-22T16:30:36.750Z,46.69
2022-08-22T16:33:07.318Z,47.04
2022-08-22T16:36:22.457Z,46.55
2022-08-22T16:38:54.159Z,46.34
2022-08-22T16:41:35.652Z,45.89
2022-08-22T16:44:30.869Z,46.20
2022-08-22T16:47:13.030Z,46.51
2022-08-22T16:50:00.143Z,46.38
2022-08-22T16:52:59.970Z,46.56
2022-08-22T16:55:46.578Z,46.64
2022-08-22T16:58:56.909Z,47.19
2022-08-22T17:01:43.422Z,47.41
2022-08-22T17:04:21.846Z,47.68
2022-08-22T17:07:03.229Z,47.71
2022-08-22T17:09:57.986Z,48.19
2022-08-22T17:12:42.180Z,48.03
2022-08-22T17:15:20.311Z,48.79
2022-08-22T17:18:11.621Z,48.74
2022-08-22T17:20:50.761Z,48.58
2022-08-22T17:23:35.958Z,48.82
2022-08-22T17:26:20.165Z,48.30
2022-08-22T17:29:01.746Z,48.10
2022-08-22T17:31:38.009Z,48.54
2022-08-22T17:34:20.679Z,49.60
2022-08-22T17:37:09.492Z,53.44
2022-08-22T17:39:56.733Z,54.95
2022-08-22T17:42:44.271Z,56.07
2022-08-22T17:45:27.564Z,56.48
2022-08-22T17:48:03.720Z,57.30
2022-08-22T17:50:40.292Z,57.76
2022-08-22T17:53:16.702Z,58.54
2022-08-22T17:55:58.968Z,59.84
2022-08-22T17:58:43.571Z,60.77
2022-08-22T18:01:21.691Z,61.63
2022-08-22T18:03:59.737Z,61.67
2022-08-22T18:06:32.124Z,62.06
2022-08-22T18:09:13.992Z,62.95
2022-08-22T18:11:49.524Z,63.82
2022-08-22T18:14:28.927Z,64.12
2022-08-22T18:16:59.321Z,64.32
2022-08-22T18:19:41.449Z,65.01
2022-08-22T18:22:14.838Z,64.82
2022-08-22T18:24:49.560Z,64.78
2022-08-22T18:27:34.138Z,65.31
2022-08-22T18:30:08.584Z,65.58
2022-08-22T18:32:43.801Z,66.07
2022-08-22T18:35:19.410Z,66.13
2022-08-22T18:37:54.956Z,66.47
2022-08-22T18:40:31.902Z,66.98
2022-08-22T18:43:14.078Z,66.82
2022-08-22T18:46:04.154Z,67.30
2022-08-22T18:48:54.393Z,67.95
2022-08-22T18:51:31.137Z,67.67
2022-08-22T18:54:24.757Z,68.00
2022-08-22T18:57:00.872Z,68.08
2022-08-22T18:59:42.783Z,68.38
2022-08-22T19:02:39.451Z,68.25
2022-08-22T19:05:33.777Z,68.74
2022-08-22T19:08:25.178Z,69.05
2022-08-22T19:11:10.349Z,69.15
2022-08-22T19:14:06.592Z,69.40
2022-08-22T19:17:08.188Z,68.94
2022-08-22T19:20:06.215Z,68.59
2022-08-22T19:22:36.123Z,68.22
2022-08-22T19:25:13.722Z,68.42
2022-08-22T19:27:44.850Z,68.18
2022-08-22T19:30:41.628Z,68.23
2022-08-22T19:33:12.282Z,68.32
2022-08-22T19:36:12.892Z,67.78
2022-08-22T19:39:00.245Z,67.88
2022-08-22T19:41:57.126Z,67.27
2022-08-22T19:44:42.262Z,66.97
2022-08-22T19:47:27.540Z,66.61
2022-08-22T19:50:03.853Z,66.21
2022-08-22T19:52:55.364Z,65.78
2022-08-22T19:55:30.504Z,65.44
2022-08-22T19:58:07.214Z,64.78
2022-08-22T20:00:53.796Z,63.53
2022-08-22T20:03:38.181Z,61.20
2022-08-22T20:06:33.817Z,60.50
2022-08-22T20:09:18.715Z,59.73
2022-08-22T20:11:56.475Z,58.54
2022-08-22T20:14:30.085Z,57.89
2022-08-22T20:22:45.781Z,55.10
2022-08-22T20:25:41.788Z,54.51
2022-08-22T20:28:12.369Z,53.94
2022-08-22T20:30:44.407Z,52.75
2022-08-22T20:33:17.607Z,53.01
2022-08-22T20:35:53.435Z,53.41
2022-08-22T20:41:00.487Z,51.96
2022-08-22T20:43:35.785Z,51.70
2022-08-22T20:46:16.698Z,51.43
2022-08-22T20:48:47.387Z,51.74
2022-08-22T20:51:26.719Z,51.53
2022-08-22T20:53:57.052Z,52.08
2022-08-22T20:56:37.447Z,52.07
2022-08-22T20:59:27.981Z,51.87
2022-08-22T21:02:04.415Z,52.03
2022-08-22T21:04:42.915Z,52.15
2022-08-22T21:07:12.698Z,52.28
2022-08-22T21:09:57.952Z,52.59
2022-08-22T21:12:27.947Z,52.74
2022-08-22T21:14:56.318Z,52.98
2022-08-22T21:17:29.311Z,53.22
2022-08-22T21:20:19.465Z,53.53
2022-08-22T21:22:49.627Z,53.80
2022-08-22T21:25:18.172Z,54.52
2022-08-22T21:27:49.183Z,54.24
2022-08-22T21:30:24.963Z,54.75
2022-08-22T21:32:56.268Z,54.50
2022-08-22T21:35:30.211Z,55.00
2022-08-22T21:38:01.910Z,55.46
2022-08-22T21:40:34.719Z,55.60
2022-08-22T21:43:07.555Z,55.80
2022-08-22T21:45:47.122Z,56.29
2022-08-22T21:48:36.314Z,56.44
2022-08-22T21:51:41.156Z,56.91
2022-08-22T21:54:40.704Z,57.50
2022-08-22T21:57:19.074Z,57.33
2022-08-22T21:59:52.198Z,58.37
2022-08-22T22:02:37.348Z,58.88
2022-08-22T22:05:11.324Z,58.89
2022-08-22T22:07:41.911Z,58.83
2022-08-22T22:10:15.075Z,58.76
2022-08-22T22:12:45.729Z,59.01
2022-08-22T22:15:22.491Z,59.27
2022-08-22T22:17:50.923Z,59.27
2022-08-22T22:20:21.124Z,59.27
2022-08-22T22:22:59.837Z,59.78
2022-08-22T22:25:40.288Z,59.88
2022-08-22T22:28:13.207Z,60.13
2022-08-22T22:30:42.918Z,59.78
2022-08-22T22:33:11.296Z,59.74
2022-08-22T22:35:41.369Z,59.95
2022-08-22T22:38:10.159Z,59.64
2022-08-22T22:40:39.794Z,59.48
2022-08-22T22:43:10.264Z,59.65
2022-08-22T22:45:38.755Z,59.47
2022-08-22T22:48:08.178Z,59.87
2022-08-22T22:50:40.586Z,60.07
2022-08-22T22:53:09.491Z,60.25
2022-08-22T22:55:42.488Z,60.38
2022-08-22T22:58:13.765Z,60.21
2022-08-22T23:00:43.683Z,60.37
2022-08-22T23:03:11.949Z,60.72
2022-08-22T23:05:40.054Z,60.54
2022-08-22T23:08:08.070Z,60.69
2022-08-22T23:10:36.272Z,60.74
2022-08-22T23:13:06.716Z,61.02
2022-08-22T23:15:34.643Z,61.42
2022-08-22T23:18:02.850Z,61.69
2022-08-22T23:20:31.395Z,61.50
2022-08-22T23:23:01.015Z,61.63
2022-08-22T23:25:29.400Z,61.57
2022-08-22T23:27:58.842Z,61.95
2022-08-22T23:30:28.299Z,62.02
2022-08-22T23:32:56.903Z,61.77
2022-08-22T23:35:25.143Z,62.00
2022-08-22T23:37:53.354Z,61.81
2022-08-22T23:40:21.493Z,61.80
2022-08-22T23:42:49.856Z,61.93
2022-08-22T23:45:17.975Z,61.98
2022-08-22T23:47:47.638Z,62.53
2022-08-22T23:50:15.705Z,62.48
2022-08-22T23:52:43.844Z,62.94
2022-08-22T23:55:11.992Z,62.42
2022-08-22T23:57:40.067Z,62.66
